Time,TemperatureF,DewpointF,PressureIn,WindDirection,WindDirectionDegrees,WindSpeedMPH,WindSpeedGustMPH,Humidity,HourlyPrecipIn,Conditions,Clouds,dailyrainin,SolarRadiationWatts/m^2,SoftwareType,DateUTC
2013-05-22 00:00:00,69.9,63.8,29.64,SSE,165,8.0,9.0,81,0.00,,BKN,0.22,0.00,VWS V14.01,2013-05-22 05:00:00,
2013-05-22 00:05:00,69.8,63.7,29.64,SSE,161,8.0,9.0,81,0.00,,SCT110,0.00,0.00,VWS V14.01,2013-05-22 05:05:00,
2013-05-22 00:10:00,69.8,63.7,29.63,SSE,161,2.0,4.0,81,0.00,,SCT110,0.00,0.00,VWS V14.01,2013-05-22 05:10:00,
2013-05-22 00:15:00,69.8,63.7,29.63,SSE,166,2.0,10.0,81,0.00,,SCT110,0.00,0.00,VWS V14.01,2013-05-22 05:15:00,
2013-05-22 00:21:00,69.8,63.7,29.63,SSE,165,1.0,5.0,81,0.00,,SCT110,0.00,0.00,VWS V14.01,2013-05-22 05:21:00,
2013-05-22 00:26:00,69.6,63.9,29.63,SSE,155,2.0,5.0,82,0.00,,SCT110,0.00,0.00,VWS V14.01,2013-05-22 05:26:00,
2013-05-22 00:31:00,69.6,63.9,29.62,SSE,167,7.0,7.0,82,0.00,,SCT110,0.00,0.00,VWS V14.01,2013-05-22 05:31:00,
2013-05-22 00:36:00,69.4,63.7,29.62,SSE,163,0.0,7.0,82,0.00,,SCT110,0.00,0.00,VWS V14.01,2013-05-22 05:36:00,
2013-05-22 00:41:00,69.3,63.9,29.62,SSE,165,2.0,7.0,83,0.00,,SCT110,0.00,0.00,VWS V14.01,2013-05-22 05:41:00,
2013-05-22 00:46:00,69.3,63.9,29.62,SSE,153,2.0,8.0,83,0.00,,SCT110,0.00,0.00,VWS V14.01,2013-05-22 05:46:00,
2013-05-22 00:51:00,69.1,63.7,29.62,SSE,163,12.0,15.0,83,0.00,,SCT110,0.00,0.00,VWS V14.01,2013-05-22 05:51:00,
2013-05-22 00:56:00,69.1,63.7,29.62,South,169,6.0,10.0,83,0.00,,SCT110,0.00,0.00,VWS V14.01,2013-05-22 05:56:00,
2013-05-22 01:02:00,68.9,63.5,29.62,SSE,148,0.0,5.0,83,0.00,,BKN090,0.00,0.00,VWS V14.01,2013-05-22 06:02:00,
2013-05-22 01:07:00,68.8,63.4,29.62,SSE,149,0.0,2.0,83,0.00,,BKN090,0.00,0.00,VWS V14.01,2013-05-22 06:07:00,
2013-05-22 01:12:00,68.8,63.8,29.61,South,180,0.0,3.0,84,0.00,,BKN090,0.00,0.00,VWS V14.01,2013-05-22 06:12:00,
2013-05-22 01:17:00,68.6,63.6,29.61,SSW,205,3.0,3.0,84,0.00,,BKN090,0.00,0.00,VWS V14.01,2013-05-22 06:17:00,
2013-05-22 01:22:00,68.6,63.6,29.62,South,171,5.0,6.0,84,0.00,,BKN090,0.00,0.00,VWS V14.01,2013-05-22 06:22:00,
2013-05-22 01:27:00,68.4,63.4,29.61,SSW,198,4.0,10.0,84,0.00,,BKN090,0.00,0.00,VWS V14.01,2013-05-22 06:27:00,
2013-05-22 01:32:00,68.4,63.4,29.62,SSE,148,6.0,7.0,84,0.00,,BKN090,0.00,0.00,VWS V14.01,2013-05-22 06:32:00,
2013-05-22 01:37:00,68.3,63.3,29.61,SSE,150,0.0,2.0,84,0.00,,BKN090,0.00,0.00,VWS V14.01,2013-05-22 06:37:00,
2013-05-22 01:42:00,68.3,63.3,29.61,SSE,157,2.0,6.0,84,0.00,,BKN090,0.00,0.00,VWS V14.01,2013-05-22 06:42:00,
2013-05-22 01:47:00,68.1,63.1,29.61,SSE,157,2.0,4.0,84,0.00,,BKN090,0.00,0.00,VWS V14.01,2013-05-22 06:47:00,
2013-05-22 01:52:00,68.1,63.4,29.61,SSE,158,0.0,5.0,85,0.00,,BKN090,0.00,0.00,VWS V14.01,2013-05-22 06:52:00,
2013-05-22 01:57:00,67.9,63.2,29.61,SSE,153,4.0,4.0,85,0.00,,BKN090,0.00,0.00,VWS V14.01,2013-05-22 06:57:00,
2013-05-22 02:02:00,67.9,63.2,29.61,SSE,148,8.0,8.0,85,0.00,,BKN080,0.00,0.00,VWS V14.01,2013-05-22 07:02:00,
2013-05-22 02:07:00,67.8,63.5,29.61,SSE,150,0.0,5.0,86,0.00,,BKN080,0.00,0.00,VWS V14.01,2013-05-22 07:07:00,
2013-05-22 02:12:00,67.6,63.3,29.61,SSE,159,1.0,4.0,86,0.00,,BKN080,0.00,0.00,VWS V14.01,2013-05-22 07:12:00,
2013-05-22 02:17:00,67.6,63.3,29.61,SSE,159,2.0,8.0,86,0.00,,BKN080,0.00,0.00,VWS V14.01,2013-05-22 07:17:00,
2013-05-22 02:22:00,67.4,63.4,29.61,South,170,0.0,2.0,87,0.00,,BKN080,0.00,0.00,VWS V14.01,2013-05-22 07:22:00,
2013-05-22 02:27:00,67.4,63.4,29.61,SSE,166,2.0,4.0,87,0.00,,BKN080,0.00,0.00,VWS V14.01,2013-05-22 07:27:00,
2013-05-22 02:32:00,67.4,63.4,29.61,SSE,158,5.0,7.0,87,0.00,,BKN080,0.00,0.00,VWS V14.01,2013-05-22 07:32:00,
2013-05-22 02:37:00,67.3,63.3,29.61,South,187,2.0,5.0,87,0.00,,BKN080,0.00,0.00,VWS V14.01,2013-05-22 07:37:00,
2013-05-22 02:42:00,67.3,63.3,29.61,SSE,157,7.0,7.0,87,0.00,,BKN080,0.00,0.00,VWS V14.01,2013-05-22 07:42:00,
2013-05-22 02:47:00,67.3,63.6,29.61,SSE,153,0.0,4.0,88,0.00,,BKN080,0.00,0.00,VWS V14.01,2013-05-22 07:47:00,
2013-05-22 02:52:00,67.3,63.6,29.61,SSE,157,1.0,11.0,88,0.00,,BKN080,0.00,0.00,VWS V14.01,2013-05-22 07:52:00,
2013-05-22 02:57:00,67.1,63.4,29.60,SSE,157,1.0,4.0,88,0.00,,BKN080,0.00,0.00,VWS V14.01,2013-05-22 07:57:00,
2013-05-22 03:02:00,67.1,63.4,29.60,South,170,4.0,6.0,88,0.00,,BKN080,0.00,0.00,VWS V14.01,2013-05-22 08:02:00,
2013-05-22 03:07:00,67.1,63.8,29.60,SSE,162,5.0,5.0,89,0.00,,BKN080,0.00,0.00,VWS V14.01,2013-05-22 08:07:00,
2013-05-22 03:12:00,67.1,63.8,29.61,SSE,153,0.0,8.0,89,0.00,,BKN080,0.00,0.00,VWS V14.01,2013-05-22 08:12:00,
2013-05-22 03:17:00,66.9,63.6,29.60,SSE,153,6.0,9.0,89,0.00,,BKN080,0.00,0.00,VWS V14.01,2013-05-22 08:17:00,
2013-05-22 03:22:00,66.9,63.9,29.60,SSE,155,1.0,8.0,90,0.00,,BKN080,0.00,0.00,VWS V14.01,2013-05-22 08:22:00,
2013-05-22 03:28:00,66.9,63.9,29.60,SW,220,4.0,7.0,90,0.00,,BKN080,0.00,0.00,VWS V14.01,2013-05-22 08:28:00,
2013-05-22 03:33:00,66.9,63.9,29.60,South,186,0.0,3.0,90,0.00,,BKN080,0.00,0.00,VWS V14.01,2013-05-22 08:33:00,
2013-05-22 03:38:00,66.9,64.2,29.60,SSW,213,1.0,6.0,91,0.06,,BKN080,0.06,0.00,VWS V14.01,2013-05-22 08:38:00,
2013-05-22 03:43:00,66.6,64.2,29.60,SW,215,0.0,5.0,92,0.18,,BKN080,0.18,0.00,VWS V14.01,2013-05-22 08:43:00,
2013-05-22 03:49:00,66.3,63.9,29.60,SSW,202,3.0,10.0,92,0.18,,BKN080,0.18,0.00,VWS V14.01,2013-05-22 08:49:00,
2013-05-22 03:54:00,66.0,63.9,29.60,SSW,205,2.0,6.0,93,0.18,,BKN080,0.18,0.00,VWS V14.01,2013-05-22 08:54:00,
2013-05-22 04:00:00,65.6,63.5,29.61,SSW,198,3.0,7.0,93,0.18,,BKN080,0.18,0.00,VWS V14.01,2013-05-22 09:00:00,
2013-05-22 04:05:00,65.5,63.4,29.61,SSW,198,6.0,6.0,93,0.18,,OVC025,0.18,0.00,VWS V14.01,2013-05-22 09:05:00,
2013-05-22 04:10:00,65.3,63.5,29.61,SW,218,7.0,9.0,94,0.18,,OVC025,0.18,0.00,VWS V14.01,2013-05-22 09:10:00,
2013-05-22 04:15:00,65.2,63.4,29.61,West,275,5.0,8.0,94,0.18,,OVC025,0.18,0.00,VWS V14.01,2013-05-22 09:15:00,
2013-05-22 04:21:00,65.0,63.2,29.61,SSW,203,3.0,3.0,94,0.19,,OVC025,0.19,0.00,VWS V14.01,2013-05-22 09:21:00,
2013-05-22 04:26:00,64.7,62.9,29.61,SW,223,5.0,6.0,94,0.22,,OVC025,0.22,0.00,VWS V14.01,2013-05-22 09:26:00,
2013-05-22 04:31:00,64.2,62.4,29.62,SSW,207,0.0,8.0,94,0.22,,OVC025,0.22,0.00,VWS V14.01,2013-05-22 09:31:00,
2013-05-22 04:36:00,63.9,62.1,29.61,WSW,254,0.0,2.0,94,0.21,,OVC025,0.22,0.00,VWS V14.01,2013-05-22 09:36:00,
2013-05-22 04:41:00,63.5,61.8,29.62,WSW,252,4.0,5.0,94,0.09,,OVC025,0.22,0.00,VWS V14.01,2013-05-22 09:41:00,
2013-05-22 04:46:00,63.2,61.5,29.62,WSW,252,0.0,3.0,94,0.04,,OVC025,0.22,0.00,VWS V14.01,2013-05-22 09:46:00,
2013-05-22 04:51:00,63.4,61.7,29.61,WSW,252,1.0,1.0,94,0.04,,OVC025,0.22,0.00,VWS V14.01,2013-05-22 09:51:00,
2013-05-22 04:56:00,63.5,61.8,29.61,WSW,252,0.0,2.0,94,0.04,,OVC025,0.22,0.00,VWS V14.01,2013-05-22 09:56:00,
2013-05-22 05:02:00,63.7,62.0,29.61,WSW,252,0.0,0.0,94,0.04,,OVC025,0.22,0.00,VWS V14.01,2013-05-22 10:02:00,
2013-05-22 05:07:00,63.9,62.1,29.61,WSW,252,0.0,0.0,94,0.04,,OVC025,0.22,0.00,VWS V14.01,2013-05-22 10:07:00,
2013-05-22 05:12:00,64.0,62.2,29.61,WSW,252,0.0,0.0,94,0.04,,OVC025,0.22,0.00,VWS V14.01,2013-05-22 10:12:00,
2013-05-22 05:17:00,64.3,62.8,29.60,WSW,252,2.0,4.0,95,0.04,,OVC025,0.22,0.00,VWS V14.01,2013-05-22 10:17:00,
2013-05-22 05:22:00,64.5,63.0,29.59,SSW,200,4.0,4.0,95,0.03,,OVC025,0.22,0.00,VWS V14.01,2013-05-22 10:22:00,
2013-05-22 05:27:00,64.7,63.2,29.59,SSE,168,5.0,6.0,95,0.00,,OVC025,0.22,0.00,VWS V14.01,2013-05-22 10:27:00,
2013-05-22 05:32:00,64.8,63.3,29.60,SSE,163,1.0,5.0,95,0.00,,OVC025,0.22,0.00,VWS V14.01,2013-05-22 10:32:00,
2013-05-22 05:38:00,64.8,63.3,29.60,SSE,155,1.0,9.0,95,0.00,,OVC025,0.22,0.00,VWS V14.01,2013-05-22 10:38:00,
2013-05-22 05:43:00,64.8,63.3,29.60,SSE,159,6.0,6.0,95,0.00,,OVC025,0.22,0.00,VWS V14.01,2013-05-22 10:43:00,
2013-05-22 05:48:00,65.0,63.5,29.60,SSE,159,6.0,10.0,95,0.00,,OVC025,0.22,0.00,VWS V14.01,2013-05-22 10:48:00,
2013-05-22 05:53:00,65.0,63.5,29.60,SSE,160,4.0,7.0,95,0.00,,OVC025,0.22,0.00,VWS V14.01,2013-05-22 10:53:00,
2013-05-22 05:58:00,64.8,63.3,29.60,SSE,162,2.0,5.0,95,0.00,,OVC025,0.22,0.00,VWS V14.01,2013-05-22 10:58:00,
2013-05-22 06:03:00,64.8,63.3,29.60,SSE,163,6.0,6.0,95,0.00,,,0.22,0.00,VWS V14.01,2013-05-22 11:03:00,
2013-05-22 06:09:00,64.7,63.5,29.60,SSE,163,0.0,4.0,96,0.00,,,0.22,9.00,VWS V14.01,2013-05-22 11:09:00,
2013-05-22 06:14:00,64.7,63.5,29.60,SSE,166,1.0,5.0,96,0.00,,,0.22,14.00,VWS V14.01,2013-05-22 11:14:00,
2013-05-22 06:19:00,64.7,63.5,29.60,SSE,152,1.0,1.0,96,0.00,,,0.22,21.00,VWS V14.01,2013-05-22 11:19:00,
2013-05-22 06:25:00,64.7,63.5,29.60,SSE,157,0.0,5.0,96,0.00,,,0.22,25.00,VWS V14.01,2013-05-22 11:25:00,
2013-05-22 06:30:00,64.7,63.5,29.60,SSE,156,2.0,4.0,96,0.00,,,0.22,26.00,VWS V14.01,2013-05-22 11:30:00,
2013-05-22 06:35:00,64.7,63.5,29.59,SSE,156,4.0,5.0,96,0.00,,,0.22,35.00,VWS V14.01,2013-05-22 11:35:00,
2013-05-22 06:40:00,64.7,63.5,29.58,SSE,156,1.0,1.0,96,0.00,,,0.22,47.00,VWS V14.01,2013-05-22 11:40:00,
2013-05-22 06:45:00,64.5,63.3,29.57,SSE,151,4.0,5.0,96,0.00,,,0.22,37.00,VWS V14.01,2013-05-22 11:45:00,
2013-05-22 06:50:00,64.5,63.3,29.57,SSE,152,2.0,7.0,96,0.00,,,0.22,28.00,VWS V14.01,2013-05-22 11:50:00,
2013-05-22 06:55:00,64.5,63.3,29.57,SSE,157,5.0,6.0,96,0.00,,,0.22,47.00,VWS V14.01,2013-05-22 11:55:00,
2013-05-22 07:00:00,64.7,63.5,29.57,SSE,157,0.0,1.0,96,0.00,,,0.22,65.00,VWS V14.01,2013-05-22 12:00:00,
2013-05-22 07:05:00,64.7,63.5,29.57,SSE,157,2.0,4.0,96,0.00,,,0.22,88.00,VWS V14.01,2013-05-22 12:05:00,
2013-05-22 07:10:00,64.7,63.5,29.56,SSE,157,0.0,0.0,96,0.00,,,0.22,86.00,VWS V14.01,2013-05-22 12:10:00,
2013-05-22 07:15:00,64.8,63.6,29.57,SSE,157,0.0,2.0,96,0.00,,,0.22,128.00,VWS V14.01,2013-05-22 12:15:00,
2013-05-22 07:20:00,64.8,63.6,29.57,SSE,157,0.0,0.0,96,0.00,,,0.22,60.00,VWS V14.01,2013-05-22 12:20:00,
2013-05-22 07:25:00,64.8,63.6,29.57,SSE,165,2.0,4.0,96,0.00,,,0.22,77.00,VWS V14.01,2013-05-22 12:25:00,
2013-05-22 07:30:00,64.7,63.5,29.58,South,169,2.0,6.0,96,0.00,,,0.22,62.00,VWS V14.01,2013-05-22 12:30:00,
2013-05-22 07:35:00,64.7,63.5,29.58,South,182,4.0,5.0,96,0.00,,,0.22,100.00,VWS V14.01,2013-05-22 12:35:00,
2013-05-22 07:40:00,64.7,63.5,29.58,South,182,2.0,4.0,96,0.00,,,0.22,113.00,VWS V14.01,2013-05-22 12:40:00,
2013-05-22 07:45:00,64.7,63.5,29.59,SW,225,8.0,8.0,96,0.00,,,0.22,181.00,VWS V14.01,2013-05-22 12:45:00,
2013-05-22 07:50:00,64.7,63.5,29.59,SSW,202,0.0,4.0,96,0.00,,,0.22,91.00,VWS V14.01,2013-05-22 12:50:00,
2013-05-22 07:55:00,64.7,63.5,29.59,SSW,204,0.0,3.0,96,0.00,,,0.22,69.00,VWS V14.01,2013-05-22 12:55:00,
2013-05-22 08:00:00,64.7,63.5,29.59,SSE,149,0.0,4.0,96,0.00,,,0.22,54.00,VWS V14.01,2013-05-22 13:00:00,
2013-05-22 08:06:00,64.8,63.6,29.60,SSE,149,0.0,1.0,96,0.00,,,0.22,97.00,VWS V14.01,2013-05-22 13:06:00,
2013-05-22 08:11:00,65.0,63.8,29.60,SE,144,1.0,4.0,96,0.00,,,0.22,65.00,VWS V14.01,2013-05-22 13:11:00,
2013-05-22 08:16:00,65.0,63.5,29.60,SSE,147,7.0,7.0,95,0.00,,,0.22,25.00,VWS V14.01,2013-05-22 13:16:00,
2013-05-22 08:21:00,64.8,63.3,29.60,SSE,160,2.0,10.0,95,0.00,,,0.22,18.00,VWS V14.01,2013-05-22 13:21:00,
2013-05-22 08:26:00,64.8,63.3,29.60,SSE,155,6.0,7.0,95,0.01,,,0.23,72.00,VWS V14.01,2013-05-22 13:26:00,
2013-05-22 08:32:00,64.7,63.2,29.60,SSE,155,6.0,8.0,95,0.01,,,0.23,98.00,VWS V14.01,2013-05-22 13:32:00,
2013-05-22 08:37:00,64.7,63.2,29.60,SSE,148,10.0,10.0,95,0.02,,,0.24,156.00,VWS V14.01,2013-05-22 13:37:00,
2013-05-22 08:42:00,64.7,63.2,29.60,South,186,4.0,5.0,95,0.03,,,0.25,139.00,VWS V14.01,2013-05-22 13:42:00,
2013-05-22 08:47:00,64.7,63.2,29.60,South,178,2.0,5.0,95,0.03,,,0.25,74.00,VWS V14.01,2013-05-22 13:47:00,
2013-05-22 08:52:00,64.7,63.2,29.60,SE,145,5.0,6.0,95,0.03,,,0.25,155.00,VWS V14.01,2013-05-22 13:52:00,
2013-05-22 08:57:00,64.7,63.2,29.59,SSE,165,7.0,9.0,95,0.03,,,0.25,237.00,VWS V14.01,2013-05-22 13:57:00,
2013-05-22 09:02:00,64.8,63.3,29.60,SSE,155,7.0,13.0,95,0.03,,,0.25,200.00,VWS V14.01,2013-05-22 14:02:00,
2013-05-22 09:07:00,65.0,63.5,29.60,SSE,161,1.0,6.0,95,0.03,,,0.25,181.00,VWS V14.01,2013-05-22 14:07:00,
2013-05-22 09:12:00,65.2,63.7,29.60,SSE,163,0.0,1.0,95,0.03,,,0.25,167.00,VWS V14.01,2013-05-22 14:12:00,
2013-05-22 09:18:00,65.0,63.2,29.61,SSE,155,13.0,14.0,94,0.03,,,0.25,102.00,VWS V14.01,2013-05-22 14:18:00,
2013-05-22 09:23:00,64.8,63.0,29.61,SSE,160,7.0,7.0,94,0.03,,,0.25,46.00,VWS V14.01,2013-05-22 14:23:00,
2013-05-22 09:28:00,64.7,62.9,29.61,SW,218,6.0,8.0,94,0.06,,,0.29,25.00,VWS V14.01,2013-05-22 14:28:00,
2013-05-22 09:34:00,64.2,62.4,29.61,SSW,207,2.0,6.0,94,0.08,,,0.32,21.00,VWS V14.01,2013-05-22 14:34:00,
2013-05-22 09:39:00,63.7,62.0,29.61,SSW,202,2.0,10.0,94,0.10,,,0.34,35.00,VWS V14.01,2013-05-22 14:39:00,
2013-05-22 09:44:00,63.4,61.7,29.62,SW,215,2.0,5.0,94,0.13,,,0.38,53.00,VWS V14.01,2013-05-22 14:44:00,
2013-05-22 09:49:00,62.6,60.5,29.62,SW,230,4.0,7.0,93,0.19,,,0.44,49.00,VWS V14.01,2013-05-22 14:49:00,
2013-05-22 09:54:00,62.4,61.0,29.62,SW,223,1.0,2.0,95,0.22,,,0.47,28.00,VWS V14.01,2013-05-22 14:54:00,
2013-05-22 09:59:00,62.7,61.2,29.62,SSW,208,3.0,5.0,95,0.24,,,0.49,56.00,VWS V14.01,2013-05-22 14:59:00,
2013-05-22 10:04:00,62.7,61.2,29.62,SW,215,1.0,4.0,95,0.27,,,0.52,65.00,VWS V14.01,2013-05-22 15:04:00,
2013-05-22 10:09:00,62.6,61.2,29.62,SSW,205,2.0,6.0,95,0.29,,,0.54,76.00,VWS V14.01,2013-05-22 15:09:00,
2013-05-22 10:14:00,62.6,61.2,29.62,SSW,209,2.0,5.0,95,0.31,,,0.56,114.00,VWS V14.01,2013-05-22 15:14:00,
2013-05-22 10:20:00,62.7,61.5,29.61,SSW,213,0.0,4.0,96,0.33,,,0.58,186.00,VWS V14.01,2013-05-22 15:20:00,
2013-05-22 10:25:00,63.1,61.9,29.62,SSW,206,5.0,6.0,96,0.34,,,0.60,116.00,VWS V14.01,2013-05-22 15:25:00,
2013-05-22 10:30:00,63.2,62.0,29.63,SSW,213,4.0,11.0,96,0.31,,,0.60,216.00,VWS V14.01,2013-05-22 15:30:00,
2013-05-22 10:35:00,62.7,61.2,29.63,WSW,242,4.0,12.0,95,0.29,,,0.61,302.00,VWS V14.01,2013-05-22 15:35:00,
2013-05-22 10:40:00,62.4,61.2,29.62,WSW,249,2.0,9.0,96,0.27,,,0.61,471.00,VWS V14.01,2013-05-22 15:40:00,
2013-05-22 10:46:00,62.6,61.2,29.63,West,267,7.0,9.0,95,0.23,,,0.61,253.00,VWS V14.01,2013-05-22 15:46:00,
2013-05-22 10:51:00,62.7,61.2,29.63,WNW,294,6.0,6.0,95,0.16,,,0.61,278.00,VWS V14.01,2013-05-22 15:51:00,
2013-05-22 10:57:00,62.6,60.8,29.63,WSW,251,4.0,9.0,94,0.14,,,0.62,260.00,VWS V14.01,2013-05-22 15:57:00,
2013-05-22 11:02:00,62.4,61.8,29.64,WSW,240,3.0,6.0,98,0.11,,RA,0.62,359.00,VWS V14.01,2013-05-22 16:02:00,
2013-05-22 11:07:00,62.0,60.0,29.63,WSW,257,3.0,5.0,93,0.09,,RA,0.62,417.00,VWS V14.01,2013-05-22 16:07:00,
2013-05-22 11:12:00,62.3,60.6,29.64,WNW,285,1.0,7.0,94,0.07,,RA,0.62,476.00,VWS V14.01,2013-05-22 16:12:00,
2013-05-22 11:17:00,62.6,60.5,29.64,West,277,0.0,5.0,93,0.05,,RA,0.62,462.00,VWS V14.01,2013-05-22 16:17:00,
2013-05-22 11:22:00,62.6,59.9,29.64,WSW,249,7.0,9.0,91,0.03,,RA,0.62,452.00,VWS V14.01,2013-05-22 16:22:00,
2013-05-22 11:27:00,62.7,59.4,29.64,WSW,237,3.0,4.0,89,0.02,,RA,0.62,541.00,VWS V14.01,2013-05-22 16:27:00,
2013-05-22 11:32:00,63.2,59.3,29.64,WNW,284,0.0,4.0,87,0.02,,RA,0.62,538.00,VWS V14.01,2013-05-22 16:32:00,
2013-05-22 11:37:00,63.4,58.8,29.65,West,273,4.0,4.0,85,0.01,,RA,0.62,373.00,VWS V14.01,2013-05-22 16:37:00,
2013-05-22 11:42:00,63.5,57.9,29.65,WSW,248,5.0,7.0,82,0.01,,RA,0.62,334.00,VWS V14.01,2013-05-22 16:42:00,
2013-05-22 11:48:00,64.0,57.7,29.65,WSW,252,5.0,6.0,80,0.01,,RA,0.62,403.00,VWS V14.01,2013-05-22 16:48:00,
2013-05-22 11:53:00,64.7,57.7,29.65,WSW,254,7.0,7.0,78,0.01,,RA,0.62,520.00,VWS V14.01,2013-05-22 16:53:00,
2013-05-22 11:58:00,65.2,57.1,29.65,WSW,252,3.0,8.0,75,0.00,,RA,0.62,504.00,VWS V14.01,2013-05-22 16:58:00,
2013-05-22 12:03:00,65.6,55.2,29.66,West,263,4.0,7.0,69,0.00,,BKN044,0.62,1223.00,VWS V14.01,2013-05-22 17:03:00,
2013-05-22 12:09:00,66.6,54.9,29.65,WSW,238,3.0,7.0,66,0.00,,BKN044,0.62,751.00,VWS V14.01,2013-05-22 17:09:00,
2013-05-22 12:14:00,67.3,56.8,29.66,West,271,6.0,9.0,69,0.00,,BKN044,0.62,1178.00,VWS V14.01,2013-05-22 17:14:00,
2013-05-22 12:20:00,67.9,57.0,29.66,WSW,242,0.0,4.0,68,0.00,,BKN044,0.62,1183.00,VWS V14.01,2013-05-22 17:20:00,
2013-05-22 12:25:00,68.6,56.4,29.66,West,271,6.0,7.0,65,0.00,,BKN044,0.62,1065.00,VWS V14.01,2013-05-22 17:25:00,
2013-05-22 12:31:00,69.3,56.2,29.66,WSW,255,2.0,7.0,63,0.00,,BKN044,0.62,1058.00,VWS V14.01,2013-05-22 17:31:00,
2013-05-22 12:36:00,69.3,54.8,29.66,WSW,258,4.0,8.0,60,0.00,,BKN044,0.62,967.00,VWS V14.01,2013-05-22 17:36:00,
2013-05-22 12:41:00,69.3,55.7,29.66,West,269,2.0,4.0,62,0.00,,BKN044,0.62,969.00,VWS V14.01,2013-05-22 17:41:00,
2013-05-22 12:46:00,69.4,54.9,29.66,SW,236,5.0,10.0,60,0.00,,BKN044,0.62,970.00,VWS V14.01,2013-05-22 17:46:00,
2013-05-22 12:51:00,69.8,55.8,29.66,West,269,8.0,11.0,61,0.00,,BKN044,0.62,993.00,VWS V14.01,2013-05-22 17:51:00,
2013-05-22 12:57:00,69.4,54.9,29.66,SSW,203,4.0,5.0,60,0.00,,BKN044,0.62,995.00,VWS V14.01,2013-05-22 17:57:00,
2013-05-22 13:02:00,69.8,54.4,29.66,SW,236,2.0,5.0,58,0.00,,SCT080,0.62,1041.00,VWS V14.01,2013-05-22 18:02:00,
2013-05-22 13:08:00,69.9,55.8,29.66,South,179,5.0,9.0,61,0.00,,SCT080,0.62,1130.00,VWS V14.01,2013-05-22 18:08:00,
2013-05-22 13:13:00,69.8,54.4,29.66,SW,218,8.0,10.0,58,0.00,,SCT080,0.62,533.00,VWS V14.01,2013-05-22 18:13:00,
2013-05-22 13:18:00,69.8,53.9,29.66,SSW,194,7.0,9.0,57,0.00,,SCT080,0.62,341.00,VWS V14.01,2013-05-22 18:18:00,
2013-05-22 13:23:00,69.8,54.8,29.65,WSW,251,1.0,10.0,59,0.00,,SCT080,0.62,341.00,VWS V14.01,2013-05-22 18:23:00,
2013-05-22 13:28:00,70.6,55.1,29.65,WNW,284,7.0,7.0,58,0.00,,SCT080,0.62,1155.00,VWS V14.01,2013-05-22 18:28:00,
2013-05-22 13:33:00,70.8,54.8,29.65,SW,224,1.0,3.0,57,0.00,,SCT080,0.62,1232.00,VWS V14.01,2013-05-22 18:33:00,
2013-05-22 13:39:00,71.1,55.6,29.65,South,177,6.0,9.0,58,0.00,,SCT080,0.62,1130.00,VWS V14.01,2013-05-22 18:39:00,
2013-05-22 13:44:00,71.1,54.6,29.65,SSE,150,2.0,8.0,56,0.00,,SCT080,0.62,1035.00,VWS V14.01,2013-05-22 18:44:00,
2013-05-22 13:50:00,71.5,54.5,29.65,WSW,238,5.0,6.0,55,0.00,,SCT080,0.62,1028.00,VWS V14.01,2013-05-22 18:50:00,
2013-05-22 13:55:00,71.8,55.8,29.65,South,178,4.0,8.0,57,0.00,,SCT080,0.62,1148.00,VWS V14.01,2013-05-22 18:55:00,
2013-05-22 14:00:00,71.5,55.0,29.65,SSW,193,1.0,10.0,56,0.00,,SCT080,0.62,1185.00,VWS V14.01,2013-05-22 19:00:00,
2013-05-22 14:06:00,71.5,54.5,29.65,South,183,7.0,8.0,55,0.00,,FEW050,0.62,1055.00,VWS V14.01,2013-05-22 19:06:00,
2013-05-22 14:12:00,71.6,55.6,29.65,SSE,165,6.0,10.0,57,0.00,,FEW050,0.62,1035.00,VWS V14.01,2013-05-22 19:12:00,
2013-05-22 14:17:00,72.0,55.5,29.65,WSW,238,8.0,9.0,56,0.00,,FEW050,0.62,1074.00,VWS V14.01,2013-05-22 19:17:00,
2013-05-22 14:22:00,72.0,55.0,29.65,SSW,192,2.0,10.0,55,0.00,,FEW050,0.62,234.00,VWS V14.01,2013-05-22 19:22:00,
2013-05-22 14:27:00,71.1,54.6,29.65,SW,225,11.0,16.0,56,0.00,,FEW050,0.62,128.00,VWS V14.01,2013-05-22 19:27:00,
2013-05-22 14:32:00,70.6,54.6,29.65,SSE,161,6.0,10.0,57,0.00,,FEW050,0.62,69.00,VWS V14.01,2013-05-22 19:32:00,
2013-05-22 14:37:00,70.3,53.9,29.65,South,180,7.0,11.0,56,0.00,,FEW050,0.62,77.00,VWS V14.01,2013-05-22 19:37:00,
2013-05-22 14:42:00,70.1,54.7,29.66,SW,219,2.0,4.0,58,0.00,,FEW050,0.62,120.00,VWS V14.01,2013-05-22 19:42:00,
2013-05-22 14:47:00,70.1,56.0,29.66,WSW,242,3.0,8.0,61,0.00,,FEW050,0.62,255.00,VWS V14.01,2013-05-22 19:47:00,
2013-05-22 14:52:00,70.4,55.9,29.66,SSW,207,3.0,10.0,60,0.00,,FEW050,0.62,478.00,VWS V14.01,2013-05-22 19:52:00,
2013-05-22 14:58:00,70.8,54.8,29.66,South,191,7.0,11.0,57,0.00,,FEW050,0.62,188.00,VWS V14.01,2013-05-22 19:58:00,
2013-05-22 15:03:00,70.6,53.2,29.66,SSW,210,5.0,12.0,54,0.00,,FEW050,0.62,139.00,VWS V14.01,2013-05-22 20:03:00,
2013-05-22 15:08:00,70.4,53.5,29.66,WNW,300,3.0,9.0,55,0.00,,FEW050,0.62,253.00,VWS V14.01,2013-05-22 20:08:00,
2013-05-22 15:13:00,70.6,54.6,29.66,WSW,239,7.0,8.0,57,0.00,,FEW050,0.62,434.00,VWS V14.01,2013-05-22 20:13:00,
2013-05-22 15:18:00,71.1,55.1,29.65,SSW,207,4.0,7.0,57,0.00,,FEW050,0.62,1093.00,VWS V14.01,2013-05-22 20:18:00,
2013-05-22 15:23:00,72.1,55.1,29.65,SW,221,11.0,11.0,55,0.00,,FEW050,0.62,944.00,VWS V14.01,2013-05-22 20:23:00,
2013-05-22 15:28:00,72.0,53.4,29.65,South,174,8.0,13.0,52,0.00,,FEW050,0.62,979.00,VWS V14.01,2013-05-22 20:28:00,
2013-05-22 15:33:00,71.8,53.8,29.65,WSW,250,4.0,10.0,53,0.00,,FEW050,0.62,490.00,VWS V14.01,2013-05-22 20:33:00,
2013-05-22 15:38:00,71.8,53.8,29.65,SSW,192,3.0,7.0,53,0.00,,FEW050,0.62,534.00,VWS V14.01,2013-05-22 20:38:00,
2013-05-22 15:43:00,72.1,54.0,29.65,South,188,3.0,7.0,53,0.00,,FEW050,0.62,557.00,VWS V14.01,2013-05-22 20:43:00,
2013-05-22 15:48:00,72.1,53.5,29.65,South,173,2.0,12.0,52,0.00,,FEW050,0.62,385.00,VWS V14.01,2013-05-22 20:48:00,
2013-05-22 15:53:00,71.8,53.8,29.65,South,173,6.0,9.0,53,0.00,,FEW050,0.62,387.00,VWS V14.01,2013-05-22 20:53:00,
2013-05-22 15:58:00,71.6,53.1,29.65,WSW,247,4.0,6.0,52,0.00,,FEW050,0.62,348.00,VWS V14.01,2013-05-22 20:58:00,
2013-05-22 16:03:00,71.6,53.6,29.64,SW,220,3.0,6.0,53,0.00,,BKN,0.62,229.00,VWS V14.01,2013-05-22 21:03:00,
2013-05-22 16:08:00,71.8,54.3,29.64,SW,236,6.0,7.0,54,0.00,,BKN,0.62,209.00,VWS V14.01,2013-05-22 21:08:00,
2013-05-22 16:13:00,71.5,53.5,29.64,SW,219,3.0,10.0,53,0.00,,BKN,0.62,165.00,VWS V14.01,2013-05-22 21:13:00,
2013-05-22 16:18:00,71.1,53.6,29.65,SW,223,4.0,8.0,54,0.00,,BKN,0.62,146.00,VWS V14.01,2013-05-22 21:18:00,
2013-05-22 16:23:00,70.9,54.0,29.65,SSW,210,2.0,7.0,55,0.00,,BKN,0.62,102.00,VWS V14.01,2013-05-22 21:23:00,
2013-05-22 16:28:00,70.8,53.8,29.65,South,181,2.0,3.0,55,0.00,,BKN,0.62,69.00,VWS V14.01,2013-05-22 21:28:00,
2013-05-22 16:33:00,70.4,53.5,29.65,SSW,210,2.0,7.0,55,0.00,,BKN,0.62,39.00,VWS V14.01,2013-05-22 21:33:00,
2013-05-22 16:38:00,70.3,53.9,29.65,SW,215,1.0,9.0,56,0.00,,BKN,0.62,46.00,VWS V14.01,2013-05-22 21:38:00,
2013-05-22 16:43:00,70.1,54.2,29.65,SW,221,1.0,1.0,57,0.00,,BKN,0.62,51.00,VWS V14.01,2013-05-22 21:43:00,
2013-05-22 16:48:00,69.9,54.9,29.65,SSW,204,3.0,6.0,59,0.00,,BKN,0.62,111.00,VWS V14.01,2013-05-22 21:48:00,
2013-05-22 16:53:00,69.8,54.8,29.65,SE,141,5.0,6.0,59,0.00,,BKN,0.62,176.00,VWS V14.01,2013-05-22 21:53:00,
2013-05-22 16:58:00,69.8,55.3,29.65,South,178,0.0,6.0,60,0.00,,BKN,0.62,97.00,VWS V14.01,2013-05-22 21:58:00,
2013-05-22 17:03:00,69.8,55.8,29.65,SSW,207,1.0,5.0,61,0.00,,BKN,0.62,58.00,VWS V14.01,2013-05-22 22:03:00,
2013-05-22 17:08:00,69.6,56.0,29.66,WSW,249,4.0,4.0,62,0.00,,BKN,0.62,79.00,VWS V14.01,2013-05-22 22:08:00,
2013-05-22 17:13:00,69.6,55.6,29.66,SSW,196,2.0,4.0,61,0.00,,BKN,0.62,98.00,VWS V14.01,2013-05-22 22:13:00,
2013-05-22 17:18:00,69.6,55.6,29.66,SW,215,2.0,5.0,61,0.00,,BKN,0.62,54.00,VWS V14.01,2013-05-22 22:18:00,
2013-05-22 17:23:00,69.4,54.9,29.66,SSW,213,8.0,8.0,60,0.00,,BKN,0.62,42.00,VWS V14.01,2013-05-22 22:23:00,
2013-05-22 17:28:00,69.3,54.8,29.66,South,188,1.0,3.0,60,0.00,,BKN,0.62,54.00,VWS V14.01,2013-05-22 22:28:00,
2013-05-22 17:33:00,69.1,55.1,29.66,South,186,3.0,5.0,61,0.00,,BKN,0.62,135.00,VWS V14.01,2013-05-22 22:33:00,
2013-05-22 17:38:00,69.4,55.8,29.66,WSW,252,2.0,7.0,62,0.00,,BKN,0.62,591.00,VWS V14.01,2013-05-22 22:38:00,
2013-05-22 17:43:00,69.9,55.8,29.66,SSW,205,6.0,11.0,61,0.00,,BKN,0.62,111.00,VWS V14.01,2013-05-22 22:43:00,
2013-05-22 17:48:00,69.8,56.2,29.66,SW,233,8.0,9.0,62,0.00,,BKN,0.62,464.00,VWS V14.01,2013-05-22 22:48:00,
2013-05-22 17:53:00,69.9,55.8,29.67,SW,233,11.0,13.0,61,0.00,,BKN,0.62,527.00,VWS V14.01,2013-05-22 22:53:00,
2013-05-22 17:58:00,69.8,54.8,29.67,West,277,3.0,13.0,59,0.00,,BKN,0.62,179.00,VWS V14.01,2013-05-22 22:58:00,
2013-05-22 18:03:00,69.3,55.3,29.67,WSW,240,3.0,7.0,61,0.00,,OVC,0.62,155.00,VWS V14.01,2013-05-22 23:03:00,
2013-05-22 18:08:00,69.1,55.1,29.67,West,262,5.0,5.0,61,0.00,,OVC,0.62,77.00,VWS V14.01,2013-05-22 23:08:00,
2013-05-22 18:13:00,68.8,55.3,29.67,West,278,6.0,8.0,62,0.00,,OVC,0.62,47.00,VWS V14.01,2013-05-22 23:13:00,
2013-05-22 18:18:00,68.4,55.3,29.68,WSW,252,7.0,14.0,63,0.00,,OVC,0.62,62.00,VWS V14.01,2013-05-22 23:18:00,
2013-05-22 18:23:00,67.9,55.3,29.68,WNW,282,11.0,13.0,64,0.00,,OVC,0.62,63.00,VWS V14.01,2013-05-22 23:23:00,
2013-05-22 18:28:00,67.6,55.8,29.68,WSW,248,2.0,4.0,66,0.00,,OVC,0.62,83.00,VWS V14.01,2013-05-22 23:28:00,
2013-05-22 18:33:00,67.4,55.7,29.68,West,269,2.0,3.0,66,0.00,,OVC,0.62,93.00,VWS V14.01,2013-05-22 23:33:00,
2013-05-22 18:38:00,67.3,55.6,29.68,SW,225,7.0,9.0,66,0.00,,OVC,0.62,116.00,VWS V14.01,2013-05-22 23:38:00,
2013-05-22 18:43:00,67.1,55.8,29.68,WNW,296,4.0,5.0,67,0.00,,OVC,0.62,125.00,VWS V14.01,2013-05-22 23:43:00,
2013-05-22 18:49:00,66.8,55.1,29.68,West,269,2.0,10.0,66,0.00,,OVC,0.62,123.00,VWS V14.01,2013-05-22 23:49:00,
2013-05-22 18:54:00,66.6,55.3,29.68,SSW,192,1.0,9.0,67,0.00,,OVC,0.62,86.00,VWS V14.01,2013-05-22 23:54:00,
2013-05-22 18:59:00,66.4,55.5,29.68,West,267,3.0,9.0,68,0.00,,OVC,0.62,56.00,VWS V14.01,2013-05-22 23:59:00,
2013-05-22 19:05:00,66.1,55.7,29.69,West,273,1.0,8.0,69,0.00,,OVC,0.62,56.00,VWS V14.01,2013-05-23 00:05:00,
2013-05-22 19:10:00,66.0,55.2,29.69,WSW,237,5.0,10.0,68,0.00,,OVC,0.62,58.00,VWS V14.01,2013-05-23 00:10:00,
2013-05-22 19:15:00,65.8,55.4,29.69,WSW,252,2.0,8.0,69,0.00,,OVC,0.62,60.00,VWS V14.01,2013-05-23 00:15:00,
2013-05-22 19:20:00,65.8,55.4,29.69,West,273,0.0,4.0,69,0.00,,OVC,0.62,60.00,VWS V14.01,2013-05-23 00:20:00,
2013-05-22 19:25:00,65.8,55.8,29.69,WSW,240,11.0,11.0,70,0.00,,OVC,0.62,53.00,VWS V14.01,2013-05-23 00:25:00,
2013-05-22 19:30:00,65.8,55.8,29.70,SSW,209,4.0,6.0,70,0.00,,OVC,0.62,40.00,VWS V14.01,2013-05-23 00:30:00,
2013-05-22 19:35:00,65.6,55.6,29.70,West,270,5.0,6.0,70,0.00,,OVC,0.62,26.00,VWS V14.01,2013-05-23 00:35:00,
2013-05-22 19:41:00,65.5,55.1,29.70,WSW,240,6.0,9.0,69,0.00,,OVC,0.62,19.00,VWS V14.01,2013-05-23 00:41:00,
2013-05-22 19:46:00,65.3,54.9,29.70,SW,224,4.0,5.0,69,0.00,,OVC,0.62,12.00,VWS V14.01,2013-05-23 00:46:00,
2013-05-22 19:51:00,65.2,55.2,29.70,SW,234,0.0,1.0,70,0.00,,OVC,0.62,7.00,VWS V14.01,2013-05-23 00:51:00,
2013-05-22 19:57:00,65.0,55.0,29.71,SW,225,3.0,8.0,70,0.00,,OVC,0.62,0.00,VWS V14.01,2013-05-23 00:57:00,
2013-05-22 20:02:00,64.7,54.3,29.71,SSW,196,4.0,6.0,69,0.00,,OVC065,0.62,0.00,VWS V14.01,2013-05-23 01:02:00,
2013-05-22 20:07:00,64.5,54.1,29.71,SW,223,1.0,5.0,69,0.00,,OVC065,0.62,0.00,VWS V14.01,2013-05-23 01:07:00,
2013-05-22 20:12:00,64.5,54.5,29.72,SSW,212,3.0,4.0,70,0.00,,OVC065,0.62,0.00,VWS V14.01,2013-05-23 01:12:00,
2013-05-22 20:17:00,64.2,54.2,29.72,SSW,209,2.0,7.0,70,0.00,,OVC065,0.62,0.00,VWS V14.01,2013-05-23 01:17:00,
2013-05-22 20:22:00,64.0,54.0,29.72,WSW,247,2.0,5.0,70,0.00,,OVC065,0.62,0.00,VWS V14.01,2013-05-23 01:22:00,
2013-05-22 20:27:00,64.0,54.0,29.72,South,189,2.0,4.0,70,0.00,,OVC065,0.62,0.00,VWS V14.01,2013-05-23 01:27:00,
2013-05-22 20:32:00,63.9,54.3,29.72,WSW,254,0.0,2.0,71,0.00,,OVC065,0.62,0.00,VWS V14.01,2013-05-23 01:32:00,
2013-05-22 20:37:00,63.9,54.3,29.72,SW,228,2.0,7.0,71,0.00,,OVC065,0.62,0.00,VWS V14.01,2013-05-23 01:37:00,
2013-05-22 20:42:00,63.7,54.1,29.73,WSW,239,3.0,5.0,71,0.00,,OVC065,0.62,0.00,VWS V14.01,2013-05-23 01:42:00,
2013-05-22 20:47:00,63.7,54.5,29.73,SW,232,1.0,4.0,72,0.00,,OVC065,0.62,0.00,VWS V14.01,2013-05-23 01:47:00,
2013-05-22 20:52:00,63.5,54.3,29.73,WSW,247,2.0,7.0,72,0.00,,OVC065,0.62,0.00,VWS V14.01,2013-05-23 01:52:00,
2013-05-22 20:58:00,63.4,54.6,29.73,WSW,256,2.0,3.0,73,0.00,,OVC065,0.62,0.00,VWS V14.01,2013-05-23 01:58:00,
2013-05-22 21:03:00,63.4,54.6,29.73,WSW,250,2.0,6.0,73,0.00,,OVC065,0.62,0.00,VWS V14.01,2013-05-23 02:03:00,
2013-05-22 21:08:00,63.2,54.4,29.73,SSE,159,2.0,6.0,73,0.00,,OVC065,0.62,0.00,VWS V14.01,2013-05-23 02:08:00,
2013-05-22 21:13:00,63.1,54.3,29.73,SSW,196,3.0,4.0,73,0.00,,OVC065,0.62,0.00,VWS V14.01,2013-05-23 02:13:00,
2013-05-22 21:18:00,63.1,54.3,29.73,SSW,203,4.0,4.0,73,0.00,,OVC065,0.62,0.00,VWS V14.01,2013-05-23 02:18:00,
2013-05-22 21:23:00,62.9,54.1,29.74,South,182,4.0,7.0,73,0.00,,OVC065,0.62,0.00,VWS V14.01,2013-05-23 02:23:00,
2013-05-22 21:28:00,62.7,53.9,29.74,SSW,205,3.0,4.0,73,0.00,,OVC065,0.62,0.00,VWS V14.01,2013-05-23 02:28:00,
2013-05-22 21:33:00,62.6,53.8,29.74,WNW,287,2.0,4.0,73,0.00,,OVC065,0.62,0.00,VWS V14.01,2013-05-23 02:33:00,
2013-05-22 21:38:00,62.4,54.0,29.75,SW,215,1.0,6.0,74,0.00,,OVC065,0.62,0.00,VWS V14.01,2013-05-23 02:38:00,
2013-05-22 21:43:00,62.3,53.9,29.75,SSW,196,0.0,5.0,74,0.00,,OVC065,0.62,0.00,VWS V14.01,2013-05-23 02:43:00,
2013-05-22 21:48:00,62.1,53.7,29.75,SSW,196,0.0,3.0,74,0.00,,OVC065,0.62,0.00,VWS V14.01,2013-05-23 02:48:00,
2013-05-22 21:53:00,62.1,54.1,29.75,WSW,242,1.0,7.0,75,0.00,,OVC065,0.62,0.00,VWS V14.01,2013-05-23 02:53:00,
2013-05-22 21:58:00,62.0,54.4,29.76,WSW,239,3.0,8.0,76,0.00,,OVC065,0.62,0.00,VWS V14.01,2013-05-23 02:58:00,
2013-05-22 22:03:00,61.8,54.5,29.76,WSW,250,2.0,8.0,77,0.00,,OVC055,0.62,0.00,VWS V14.01,2013-05-23 03:03:00,
2013-05-22 22:08:00,61.8,54.5,29.76,WSW,254,0.0,4.0,77,0.00,,OVC055,0.62,0.00,VWS V14.01,2013-05-23 03:08:00,
2013-05-22 22:13:00,61.6,54.3,29.76,WSW,250,5.0,7.0,77,0.00,,OVC055,0.62,0.00,VWS V14.01,2013-05-23 03:13:00,
2013-05-22 22:19:00,61.6,54.3,29.76,West,260,8.0,8.0,77,0.00,,OVC055,0.62,0.00,VWS V14.01,2013-05-23 03:19:00,
2013-05-22 22:24:00,61.5,54.2,29.76,South,184,2.0,8.0,77,0.00,,OVC055,0.62,0.00,VWS V14.01,2013-05-23 03:24:00,
2013-05-22 22:29:00,61.3,54.4,29.76,SW,233,2.0,4.0,78,0.00,,OVC055,0.62,0.00,VWS V14.01,2013-05-23 03:29:00,
2013-05-22 22:34:00,61.2,54.3,29.76,SW,217,2.0,6.0,78,0.00,,OVC055,0.62,0.00,VWS V14.01,2013-05-23 03:34:00,
2013-05-22 22:39:00,61.0,54.5,29.76,SW,217,3.0,3.0,79,0.00,,OVC055,0.62,0.00,VWS V14.01,2013-05-23 03:39:00,
2013-05-22 22:44:00,60.9,54.3,29.76,WSW,241,2.0,11.0,79,0.00,,OVC055,0.62,0.00,VWS V14.01,2013-05-23 03:44:00,
2013-05-22 22:49:00,60.9,54.3,29.76,WSW,243,2.0,5.0,79,0.00,,OVC055,0.62,0.00,VWS V14.01,2013-05-23 03:49:00,
2013-05-22 22:54:00,60.7,54.2,29.76,WSW,243,3.0,8.0,79,0.00,,OVC055,0.62,0.00,VWS V14.01,2013-05-23 03:54:00,
2013-05-22 22:59:00,60.5,54.0,29.76,WSW,256,4.0,6.0,79,0.00,,OVC055,0.62,0.00,VWS V14.01,2013-05-23 03:59:00,
2013-05-22 23:01:00,60.5,54.0,29.76,WSW,257,0.0,5.0,79,0.00,,OVC055,0.62,0.00,VWS V14.01,2013-05-23 04:01:00,
2013-05-22 23:02:00,60.5,54.0,29.76,SW,217,1.0,8.0,79,0.00,,OVC055,0.62,0.00,VWS V14.01,2013-05-23 04:02:00,
2013-05-22 23:03:00,60.5,54.0,29.76,WSW,246,4.0,6.0,79,0.00,,OVC055,0.62,0.00,VWS V14.01,2013-05-23 04:03:00,
2013-05-22 23:04:00,60.5,54.0,29.76,SSW,195,5.0,6.0,79,0.00,,OVC055,0.62,0.00,VWS V14.01,2013-05-23 04:04:00,
2013-05-22 23:09:00,60.4,53.9,29.76,WSW,246,5.0,8.0,79,0.00,,OVC055,0.62,0.00,VWS V14.01,2013-05-23 04:09:00,
2013-05-22 23:14:00,60.2,53.7,29.76,WSW,246,3.0,5.0,79,0.00,,OVC055,0.62,0.00,VWS V14.01,2013-05-23 04:14:00,
2013-05-22 23:15:00,60.2,53.7,29.77,SW,229,1.0,6.0,79,0.00,,OVC055,0.62,0.00,VWS V14.01,2013-05-23 04:15:00,
2013-05-22 23:20:00,60.1,53.9,29.77,SW,234,3.0,8.0,80,0.00,,OVC055,0.62,0.00,VWS V14.01,2013-05-23 04:20:00,
2013-05-22 23:25:00,60.1,53.9,29.77,South,175,8.0,10.0,80,0.00,,OVC055,0.62,0.00,VWS V14.01,2013-05-23 04:25:00,
2013-05-22 23:30:00,59.9,53.7,29.77,West,261,6.0,9.0,80,0.00,,OVC055,0.62,0.00,VWS V14.01,2013-05-23 04:30:00,
2013-05-22 23:35:00,59.9,53.7,29.77,SSW,200,1.0,6.0,80,0.00,,OVC055,0.62,0.00,VWS V14.01,2013-05-23 04:35:00,
2013-05-22 23:40:00,59.8,54.0,29.77,SW,219,1.0,7.0,81,0.00,,OVC055,0.62,0.00,VWS V14.01,2013-05-23 04:40:00,
2013-05-22 23:46:00,59.8,54.0,29.77,WSW,238,0.0,1.0,81,0.00,,OVC055,0.62,0.00,VWS V14.01,2013-05-23 04:46:00,
2013-05-22 23:51:00,59.8,54.0,29.77,WSW,244,2.0,2.0,81,0.00,,OVC055,0.62,0.00,VWS V14.01,2013-05-23 04:51:00,
2013-05-22 23:56:00,59.8,54.0,29.77,SSW,202,0.0,2.0,81,0.00,,OVC055,0.62,0.00,VWS V14.01,2013-05-23 04:56:00,